Time;durP1;ratioP1;P1;durP2;ratioP2;P2;SDS_P1;SDS_P2;PMS_P1;PMS_P2;Temp;Humidity;BMP_temperature;BMP_pressure;BME280_temperature;BME280_humidity;BME280_pressure;Samples;Min_cycle;Max_cycle;Signal;HPM_P1;HPM_P2
2023/08/11 00:10:29;;;;;;;19.17;11.77;;;;;;;27.79;100.00;99697.56;31654989;28;20123;-75
2023/08/11 00:25:31;;;;;;;17.33;11.63;;;;;;;28.00;100.00;99715.00;31673383;28;20048;-75
2023/08/11 00:40:33;;;;;;;14.83;11.53;;;;;;;27.92;100.00;99672.34;31678924;28;20055;-76
2023/08/11 00:55:35;;;;;;;16.27;12.73;;;;;;;27.86;100.00;99668.97;31682755;28;20455;-75
2023/08/11 01:10:52;;;;;;;22.70;13.43;;;;;;;27.77;100.00;99669.47;31675428;28;20044;-76
2023/08/11 01:25:55;;;;;;;20.33;12.77;;;;;;;27.76;100.00;99670.78;31672609;28;20051;-76
2023/08/11 01:40:58;;;;;;;25.02;15.50;;;;;;;27.73;100.00;99655.13;31666938;28;20048;-74
2023/08/11 01:56:00;;;;;;;24.33;15.23;;;;;;;27.77;100.00;99650.69;31666390;28;20105;-76
2023/08/11 02:11:03;;;;;;;20.23;13.83;;;;;;;27.79;100.00;99678.03;31666527;28;20123;-75
2023/08/11 02:26:05;;;;;;;21.23;14.68;;;;;;;27.72;100.00;99709.41;31643380;28;20669;-76
2023/08/11 02:41:08;;;;;;;18.60;14.40;;;;;;;27.81;100.00;99689.41;31667692;28;20066;-75
2023/08/11 02:56:15;;;;;;;29.80;15.97;;;;;;;27.82;100.00;99685.31;31663697;28;20051;-75
2023/08/11 03:11:17;;;;;;;36.25;19.52;;;;;;;28.06;100.00;99698.84;31656979;28;20487;-76
2023/08/11 03:26:19;;;;;;;36.37;21.67;;;;;;;28.07;100.00;99714.28;31646837;28;20488;-76
2023/08/11 03:41:21;;;;;;;28.93;18.80;;;;;;;28.16;100.00;99724.19;31652409;28;20051;-77
2023/08/11 03:56:23;;;;;;;24.97;17.80;;;;;;;28.33;100.00;99749.63;31645805;28;20076;-76
2023/08/11 04:11:27;;;;;;;28.87;18.40;;;;;;;28.66;100.00;99753.50;31661280;28;20079;-76
2023/08/11 04:26:29;;;;;;;31.05;19.10;;;;;;;28.72;100.00;99745.69;31652825;28;20066;-77
2023/08/11 04:41:31;;;;;;;33.20;23.70;;;;;;;29.06;100.00;99733.50;31646856;28;20083;-76
2023/08/11 04:56:33;;;;;;;;;;;;;;;29.30;100.00;99758.16;31630768;28;20480;-74
2023/08/11 05:11:37;;;;;;;23.30;16.27;;;;;;;30.26;100.00;99727.72;31665051;28;20014;-75
2023/08/11 05:26:39;;;;;;;22.35;15.00;;;;;;;30.86;100.00;99747.13;31661255;28;20052;-75
2023/08/11 05:41:41;;;;;;;;;;;;;;;30.57;100.00;99838.38;31672700;28;20139;-75
2023/08/11 05:56:43;;;;;;;20.85;14.35;;;;;;;30.15;100.00;99763.22;31673284;28;20580;-75
2023/08/11 06:11:45;;;;;;;25.70;15.15;;;;;;;30.02;100.00;99774.63;31669428;28;20083;-76
2023/08/11 06:26:48;;;;;;;20.33;13.70;;;;;;;29.86;100.00;99733.97;31649861;28;20083;-75
2023/08/11 06:41:49;;;;;;;;;;;;;;;29.57;100.00;99713.09;31676084;28;20043;-75
2023/08/11 06:56:51;;;;;;;19.50;13.00;;;;;;;29.67;100.00;99736.41;31637304;28;19920;-76
2023/08/11 07:11:53;;;;;;;18.13;12.57;;;;;;;29.75;100.00;99742.75;31659522;28;20131;-77
2023/08/11 07:26:55;;;;;;;19.17;11.67;;;;;;;29.86;100.00;99740.28;31639052;28;20055;-76
2023/08/11 07:42:02;;;;;;;18.57;13.57;;;;;;;29.50;100.00;99720.94;31644680;28;20127;-76
2023/08/11 07:57:04;;;;;;;20.20;13.45;;;;;;;29.35;100.00;99746.03;31636891;28;20053;-76
2023/08/11 08:12:07;;;;;;;27.70;16.45;;;;;;;29.02;100.00;99780.66;31644331;28;20126;-76
2023/08/11 08:27:10;;;;;;;28.37;18.77;;;;;;;28.57;100.00;99767.25;31630954;28;20056;-76
2023/08/11 08:42:14;;;;;;;37.50;21.38;;;;;;;27.79;100.00;99793.13;31659933;28;20044;-77
2023/08/11 09:18:23;;;;;;;38.25;24.98;;;;;;;27.91;100.00;99396.78;31195553;28;20797;-75
2023/08/11 09:33:26;;;;;;;46.88;28.80;;;;;;;27.74;100.00;99444.72;31125194;28;20062;-75
2023/08/11 09:48:28;;;;;;;29.47;19.67;;;;;;;27.77;100.00;99479.84;31141281;28;20045;-75
2023/08/11 10:03:39;;;;;;;33.67;19.20;;;;;;;28.78;100.00;99413.94;31114807;28;20601;-74
2023/08/11 10:18:43;;;;;;;20.63;14.00;;;;;;;30.62;100.00;99455.75;31210655;28;20061;-74
2023/08/11 10:33:49;;;;;;;11.13;7.97;;;;;;;30.57;100.00;99439.94;31187353;28;20080;-74
2023/08/11 10:48:54;;;;;;;13.68;10.90;;;;;;;30.36;100.00;99415.81;31162459;28;20054;-74
2023/08/11 11:03:56;;;;;;;16.48;12.27;;;;;;;30.22;100.00;99450.28;31150207;28;20482;-75
2023/08/11 11:19:06;;;;;;;13.02;10.23;;;;;;;30.26;100.00;99495.38;31172074;28;20128;-75
2023/08/11 11:34:09;;;;;;;21.10;12.73;;;;;;;29.52;100.00;99547.75;31182241;28;20046;-75
2023/08/11 11:49:15;;;;;;;20.08;15.02;;;;;;;29.13;100.00;99581.88;31149639;28;20426;-76
2023/08/11 12:04:30;;;;;;;19.23;14.65;;;;;;;29.04;100.00;99618.78;31137779;28;20065;-75
2023/08/11 12:19:33;;;;;;;19.13;13.10;;;;;;;29.05;100.00;99646.19;31150015;28;20104;-73
2023/08/11 12:34:35;;;;;;;;;;;;;;;29.01;100.00;99709.31;31151902;28;20096;-75
2023/08/11 12:49:37;;;;;;;15.98;9.75;;;;;;;28.87;100.00;99632.53;31155199;28;19921;-76
2023/08/11 13:04:39;;;;;;;23.43;12.90;;;;;;;29.11;100.00;99641.13;31141913;28;20407;-74
2023/08/11 13:19:41;;;;;;;20.57;13.13;;;;;;;29.81;100.00;99576.19;31150791;28;20046;-74
2023/08/11 13:34:43;;;;;;;;;;;;;;;29.77;100.00;99686.97;31149221;28;20508;-73
2023/08/11 13:49:45;;;;;;;19.27;13.85;;;;;;;30.17;100.00;99567.47;31175137;28;19925;-76
2023/08/11 14:04:46;;;;;;;;;;;;;;;30.07;100.00;99652.59;31152889;28;20145;-74
2023/08/11 14:19:49;;;;;;;17.85;12.00;;;;;;;30.27;100.00;99558.47;31184861;28;19925;-74
2023/08/11 14:34:51;;;;;;;16.80;10.88;;;;;;;29.66;100.00;99519.56;31181050;28;20069;-75
2023/08/11 14:49:53;;;;;;;13.80;10.37;;;;;;;29.55;100.00;99547.91;31175086;28;20129;-75
2023/08/11 15:04:55;;;;;;;15.37;10.03;;;;;;;29.35;100.00;99630.69;31159779;28;20082;-76
2023/08/11 15:19:57;;;;;;;16.17;10.83;;;;;;;29.30;100.00;99635.16;31154121;28;20081;-75
2023/08/11 15:34:59;;;;;;;;;;;;;;;29.29;100.00;99700.75;31167271;28;20093;-74
2023/08/11 15:50:02;;;;;;;13.93;10.50;;;;;;;29.37;100.00;99670.00;31141647;28;19925;-74
2023/08/11 16:05:04;;;;;;;13.05;10.02;;;;;;;29.27;100.00;99597.16;31152067;28;20053;-76
2023/08/11 16:20:07;;;;;;;15.23;10.20;;;;;;;28.97;100.00;99619.53;31193465;28;20085;-74
2023/08/11 16:35:09;;;;;;;12.43;9.43;;;;;;;29.10;100.00;99583.00;31185673;28;20111;-72
2023/08/11 16:50:11;;;;;;;17.00;10.93;;;;;;;28.92;100.00;99572.97;31149075;28;20108;-75
2023/08/11 17:05:13;;;;;;;14.40;10.97;;;;;;;28.77;100.00;99571.63;31181136;28;20096;-73
2023/08/11 17:20:16;;;;;;;16.60;10.63;;;;;;;28.73;100.00;99574.03;31172077;28;20583;-74
2023/08/11 17:35:19;;;;;;;19.90;14.50;;;;;;;28.79;100.00;99560.66;31176768;28;20286;-74
2023/08/11 17:50:21;;;;;;;17.40;11.57;;;;;;;28.63;100.00;99563.97;31219272;28;20053;-75
2023/08/11 18:05:23;;;;;;;25.27;16.00;;;;;;;28.44;100.00;99564.31;31158477;28;20089;-73
2023/08/11 18:20:25;;;;;;;24.90;17.93;;;;;;;28.62;100.00;99596.72;31193126;28;20074;-74
2023/08/11 18:35:27;;;;;;;16.50;12.17;;;;;;;28.54;100.00;99567.31;31142363;28;20077;-73
2023/08/11 18:50:29;;;;;;;26.23;16.20;;;;;;;28.33;100.00;99571.00;31198210;28;20057;-73
2023/08/11 19:05:32;;;;;;;26.93;18.00;;;;;;;28.24;100.00;99590.31;31179035;28;20065;-73
2023/08/11 19:20:34;;;;;;;23.02;17.02;;;;;;;28.31;100.00;99606.34;31205404;28;20124;-73
2023/08/11 19:35:36;;;;;;;25.43;18.27;;;;;;;28.44;100.00;99614.56;31159633;28;20132;-74
2023/08/11 19:50:45;;;;;;;32.67;22.37;;;;;;;28.43;100.00;99605.44;31176460;28;20411;-72
2023/08/11 20:05:49;;;;;;;24.92;16.98;;;;;;;28.44;100.00;99636.91;31184803;28;20092;-73
2023/08/11 20:20:51;;;;;;;26.05;17.08;;;;;;;28.23;100.00;99647.41;31186873;28;20054;-74
2023/08/11 20:35:53;;;;;;;29.13;16.73;;;;;;;28.09;100.00;99644.00;31149075;28;20487;-73
2023/08/11 20:51:07;;;;;;;24.37;18.67;;;;;;;27.87;100.00;99620.28;31187519;28;20083;-71
2023/08/11 21:06:09;;;;;;;30.85;20.73;;;;;;;27.84;100.00;99582.31;31169634;28;20505;-72
2023/08/11 21:21:11;;;;;;;36.37;23.47;;;;;;;27.76;100.00;99609.41;31181430;28;20057;-72
2023/08/11 21:36:13;;;;;;;23.33;15.50;;;;;;;27.84;100.00;99621.38;31143412;28;20081;-74
2023/08/11 21:51:15;;;;;;;26.90;15.93;;;;;;;27.74;100.00;99607.19;31177599;28;20081;-73
2023/08/11 22:06:17;;;;;;;11.73;8.87;;;;;;;27.61;100.00;99598.94;31161886;28;20063;-74
2023/08/11 22:21:19;;;;;;;8.07;3.92;;;;;;;27.39;100.00;99644.84;31200224;28;20563;-73
2023/08/11 22:36:21;;;;;;;7.38;2.90;;;;;;;26.80;100.00;99691.81;31233911;28;20136;-72
2023/08/11 22:51:23;;;;;;;8.15;3.15;;;;;;;25.95;100.00;99644.03;31214860;28;20083;-75
2023/08/11 23:06:25;;;;;;;10.65;4.95;;;;;;;25.68;100.00;99642.53;31182387;28;20061;-73
2023/08/11 23:21:29;;;;;;;12.70;6.35;;;;;;;25.45;100.00;99664.38;31198975;28;20168;-74
2023/08/11 23:36:31;;;;;;;;;;;;;;;25.46;100.00;99683.31;31161677;28;20495;-74
2023/08/11 23:51:33;;;;;;;12.27;5.03;;;;;;;25.62;100.00;99694.66;31232591;28;19928;-75
